Hoback Junction, Wyoming
Current Conditions -  °F | °C
As of 1:30 PM on Monday 22 Dec 2014 (Local Time) from KJAC Reporting Station
Haze Haze  
Wind Chill: 16°   Ceiling: 4700
Heat Index: 28°   Visibility: 10mi
Dew Point: 18°   Wind: 18mph
Humidity: 64%   Direction: 290°WNW
Pressure: 29.86"   Gusts: 28mph
Location:  43.4143°N, 110.582°W
Report Text: KJAC 222030Z 29016G24KT 10SM BR SCT041 BKN047 OVC050 M02/M08 A2986
Loading
Personal Weather Stations






























Interactive Weather Map New forecast layout! Learn more

10-Day Weather Forecast

Advertisements
Track Severe Weather on mobile